createdAt,value
2023-04-15T00:00:00.240Z,58.83
2023-04-15T00:02:27.972Z,53.25
2023-04-15T00:04:56.923Z,59.45
2023-04-15T00:07:24.428Z,64.50
2023-04-15T00:09:55.119Z,54.05
2023-04-15T00:12:22.853Z,61.17
2023-04-15T00:14:51.145Z,65.20
2023-04-15T00:17:18.931Z,62.83
2023-04-15T00:19:46.903Z,64.18
2023-04-15T00:22:16.073Z,64.18
2023-04-15T00:24:43.607Z,63.75
2023-04-15T00:27:11.438Z,58.88
2023-04-15T00:29:38.959Z,63.40
2023-04-15T00:32:06.591Z,58.35
2023-04-15T00:34:34.091Z,64.22
2023-04-15T00:37:01.750Z,58.47
2023-04-15T00:39:30.842Z,61.00
2023-04-15T00:41:58.744Z,64.53
2023-04-15T00:44:26.202Z,64.00
2023-04-15T00:46:55.040Z,68.82
2023-04-15T00:49:22.677Z,62.63
2023-04-15T00:51:50.298Z,72.97
2023-04-15T00:54:17.992Z,67.80
2023-04-15T00:56:46.794Z,59.78
2023-04-15T00:59:15.245Z,67.10
2023-04-15T01:01:42.935Z,70.13
2023-04-15T01:04:11.635Z,66.75
2023-04-15T01:06:39.197Z,67.43
2023-04-15T01:09:06.614Z,69.78
2023-04-15T01:11:35.016Z,67.20
2023-04-15T01:14:03.948Z,68.07
2023-04-15T01:16:32.431Z,73.95
2023-04-15T01:19:00.500Z,78.80
2023-04-15T01:21:28.178Z,67.80
2023-04-15T01:23:56.899Z,73.65
2023-04-15T01:26:25.912Z,61.58
2023-04-15T01:28:53.392Z,79.13
2023-04-15T01:31:20.919Z,71.82
2023-04-15T01:33:48.698Z,67.43
2023-04-15T01:36:16.202Z,70.65
2023-04-15T01:38:43.681Z,83.55
2023-04-15T01:41:11.209Z,72.25
2023-04-15T01:43:40.088Z,92.75
2023-04-15T01:46:08.225Z,85.95
2023-04-15T01:48:35.850Z,80.72
2023-04-15T01:51:03.415Z,78.22
2023-04-15T01:53:30.847Z,79.00
2023-04-15T01:55:58.304Z,81.80
2023-04-15T01:58:26.085Z,83.40
2023-04-15T02:00:54.961Z,85.80
2023-04-15T02:03:22.573Z,76.75
2023-04-15T02:05:51.011Z,82.50
2023-04-15T02:08:18.491Z,73.47
2023-04-15T02:10:45.978Z,74.97
2023-04-15T02:13:13.812Z,75.47
2023-04-15T02:15:41.269Z,69.63
2023-04-15T02:18:10.103Z,78.32
2023-04-15T02:20:37.983Z,75.82
2023-04-15T02:23:07.387Z,76.97
2023-04-15T02:25:34.899Z,69.65
2023-04-15T02:28:02.377Z,78.38
2023-04-15T02:30:29.905Z,80.13
2023-04-15T02:32:57.578Z,81.00
2023-04-15T02:35:26.705Z,84.07
2023-04-15T02:37:54.253Z,90.47
2023-04-15T02:40:21.873Z,68.35
2023-04-15T02:42:49.398Z,87.30
2023-04-15T02:45:18.176Z,76.63
2023-04-15T02:47:46.888Z,72.57
2023-04-15T02:50:15.158Z,82.55
2023-04-15T02:52:44.646Z,68.60
2023-04-15T02:55:12.669Z,74.85
2023-04-15T02:57:41.172Z,68.32
2023-04-15T03:00:11.518Z,69.10
2023-04-15T03:02:39.999Z,86.57
2023-04-15T03:05:09.193Z,84.10
2023-04-15T03:07:36.657Z,73.20
2023-04-15T03:10:06.295Z,78.05
2023-04-15T03:12:33.772Z,75.00
2023-04-15T03:15:02.167Z,71.93
2023-04-15T03:17:29.782Z,75.97
2023-04-15T03:19:57.450Z,79.82
2023-04-15T03:22:25.136Z,71.95
2023-04-15T03:24:52.601Z,82.30
2023-04-15T03:27:21.398Z,77.05
2023-04-15T03:29:48.906Z,70.15
2023-04-15T03:32:16.705Z,69.93
2023-04-15T03:34:44.422Z,75.28
2023-04-15T03:37:11.940Z,86.55
2023-04-15T03:39:39.422Z,88.18
2023-04-15T03:42:06.924Z,70.68
2023-04-15T03:44:36.370Z,77.35
2023-04-15T03:47:03.972Z,71.72
2023-04-15T03:49:31.407Z,65.93
2023-04-15T03:51:59.771Z,75.07
2023-04-15T03:54:27.260Z,71.05
2023-04-15T03:56:54.735Z,75.70
2023-04-15T03:59:22.476Z,67.68
2023-04-15T04:01:51.410Z,76.88
2023-04-15T04:04:19.134Z,72.53
2023-04-15T04:06:46.750Z,64.25
2023-04-15T04:09:14.216Z,64.35
2023-04-15T04:11:41.643Z,79.75
2023-04-15T04:14:09.131Z,62.88
2023-04-15T04:16:36.867Z,65.32
2023-04-15T04:19:05.711Z,72.38
2023-04-15T04:21:34.155Z,64.75
2023-04-15T04:24:01.696Z,77.57
2023-04-15T04:26:29.264Z,65.22
2023-04-15T04:28:56.728Z,76.28
2023-04-15T04:31:24.279Z,70.03
2023-04-15T04:33:51.847Z,70.57
2023-04-15T04:36:20.689Z,64.43
2023-04-15T04:38:48.243Z,65.50
2023-04-15T04:41:16.030Z,60.47
2023-04-15T04:43:43.496Z,64.40
2023-04-15T04:46:12.092Z,73.68
2023-04-15T04:48:39.665Z,69.03
2023-04-15T04:51:07.727Z,74.65
2023-04-15T04:53:37.463Z,60.45
2023-04-15T04:56:05.410Z,59.60
2023-04-15T04:58:32.882Z,62.95
2023-04-15T05:01:00.393Z,70.30
2023-04-15T05:03:28.239Z,64.45
2023-04-15T05:05:56.113Z,63.60
2023-04-15T05:08:23.537Z,71.22
2023-04-15T05:10:52.382Z,61.08
2023-04-15T05:13:21.600Z,65.43
2023-04-15T05:15:49.031Z,61.22
2023-04-15T05:18:16.617Z,62.38
2023-04-15T05:20:44.216Z,69.53
2023-04-15T05:23:11.680Z,66.43
2023-04-15T05:25:39.148Z,54.53
2023-04-15T05:28:08.081Z,58.45
2023-04-15T05:30:35.722Z,57.53
2023-04-15T05:33:03.278Z,61.00
2023-04-15T05:35:30.813Z,55.60
2023-04-15T05:37:58.400Z,57.13
2023-04-15T05:40:25.969Z,62.13
2023-04-15T05:42:53.450Z,54.20
2023-04-15T05:45:22.445Z,52.38
2023-04-15T05:47:51.013Z,58.10
2023-04-15T05:50:18.637Z,60.60
2023-04-15T05:52:46.893Z,57.10
2023-04-15T05:55:14.390Z,58.95
2023-04-15T05:57:41.930Z,49.30
2023-04-15T06:00:10.989Z,48.63
2023-04-15T06:02:39.997Z,49.58
2023-04-15T06:05:09.926Z,45.53
2023-04-15T06:07:37.728Z,42.00
2023-04-15T06:10:06.418Z,39.55
2023-04-15T06:12:34.083Z,43.40
2023-04-15T06:15:01.656Z,39.05
2023-04-15T06:17:29.147Z,38.65
2023-04-15T06:19:58.164Z,35.28
2023-04-15T06:22:25.855Z,36.58
2023-04-15T06:24:53.402Z,35.63
2023-04-15T06:27:20.927Z,34.97
2023-04-15T06:29:48.460Z,35.67
2023-04-15T06:32:16.248Z,30.60
2023-04-15T06:34:43.755Z,31.02
2023-04-15T06:37:16.227Z,29.08
2023-04-15T06:39:44.631Z,29.08
2023-04-15T06:42:12.545Z,28.17
2023-04-15T06:44:40.133Z,29.52
2023-04-15T06:47:09.425Z,26.77
2023-04-15T06:49:37.055Z,27.25
2023-04-15T06:52:05.256Z,25.13
2023-04-15T06:54:34.090Z,24.98
2023-04-15T06:57:01.642Z,27.15
2023-04-15T06:59:29.426Z,24.15
2023-04-15T07:01:57.023Z,25.17
2023-04-15T07:04:24.592Z,24.30
2023-04-15T07:06:52.214Z,22.73
2023-04-15T07:09:19.832Z,22.75
2023-04-15T07:11:48.860Z,21.83
2023-04-15T07:14:16.470Z,22.73
2023-04-15T07:16:44.033Z,21.77
2023-04-15T07:19:11.715Z,21.20
2023-04-15T07:21:48.084Z,20.63
2023-04-15T07:24:17.466Z,20.77
2023-04-15T07:26:45.245Z,19.75
2023-04-15T07:29:14.174Z,21.08
2023-04-15T07:31:42.442Z,21.27
2023-04-15T07:34:10.103Z,20.77
2023-04-15T07:36:37.815Z,20.65
2023-04-15T07:39:06.055Z,21.45
2023-04-15T07:41:33.818Z,21.50
2023-04-15T07:44:01.396Z,21.73
2023-04-15T07:46:30.757Z,21.55
2023-04-15T07:48:58.365Z,23.42
2023-04-15T07:51:25.959Z,22.02
2023-04-15T07:53:53.544Z,21.70
2023-04-15T07:56:21.011Z,22.10
2023-04-15T07:58:48.523Z,22.45
2023-04-15T08:01:16.164Z,23.33
2023-04-15T08:03:45.022Z,23.55
2023-04-15T08:06:13.072Z,24.15
2023-04-15T08:08:40.656Z,24.65
2023-04-15T08:11:08.142Z,24.77
2023-04-15T08:13:35.610Z,26.38
2023-04-15T08:16:22.686Z,25.38
2023-04-15T08:18:52.975Z,25.23
2023-04-15T08:21:21.226Z,25.35
2023-04-15T08:23:50.392Z,26.70
2023-04-15T08:26:18.376Z,28.23
2023-04-15T08:28:46.762Z,25.20
2023-04-15T08:31:15.234Z,25.83
2023-04-15T08:33:42.766Z,26.17
2023-04-15T08:36:12.267Z,24.65
2023-04-15T08:38:39.813Z,25.95
2023-04-15T08:41:11.057Z,25.48
2023-04-15T08:43:43.530Z,18.90
2023-04-15T08:46:12.535Z,22.65
2023-04-15T08:48:40.655Z,23.75
2023-04-15T08:51:08.709Z,21.35
2023-04-15T08:53:38.643Z,21.00
2023-04-15T08:56:10.121Z,21.30
2023-04-15T08:58:38.092Z,22.48
2023-04-15T09:01:05.684Z,20.83
2023-04-15T09:03:33.671Z,19.75
2023-04-15T09:06:01.701Z,20.17
2023-04-15T09:08:29.268Z,19.33
2023-04-15T09:10:58.154Z,20.38
2023-04-15T09:13:25.732Z,21.70
2023-04-15T09:15:53.269Z,20.08
2023-04-15T09:18:29.560Z,20.13
2023-04-15T09:20:57.453Z,19.33
2023-04-15T09:23:25.346Z,19.13
2023-04-15T09:25:52.898Z,18.80
2023-04-15T09:28:27.338Z,18.83
2023-04-15T09:30:57.576Z,19.13
2023-04-15T09:33:26.249Z,19.80
2023-04-15T09:36:02.288Z,18.73
2023-04-15T09:38:29.981Z,18.85
2023-04-15T09:40:58.092Z,18.88
2023-04-15T09:43:38.864Z,19.83
2023-04-15T09:46:06.829Z,19.35
2023-04-15T09:48:34.336Z,19.38
2023-04-15T09:51:02.800Z,20.05
2023-04-15T09:53:31.843Z,19.67
2023-04-15T09:56:00.890Z,20.13
2023-04-15T09:58:31.349Z,19.95
2023-04-15T10:01:00.539Z,19.52
2023-04-15T10:03:29.720Z,20.77
2023-04-15T10:05:58.432Z,19.17
2023-04-15T10:08:28.457Z,21.17
2023-04-15T10:10:56.175Z,20.50
2023-04-15T10:13:25.423Z,21.77
2023-04-15T10:15:59.323Z,21.45
2023-04-15T10:18:29.336Z,20.20
2023-04-15T10:20:57.207Z,19.75
2023-04-15T10:23:25.716Z,19.70
2023-04-15T10:25:55.295Z,20.80
2023-04-15T10:28:23.639Z,20.42
2023-04-15T10:30:52.255Z,19.15
2023-04-15T10:33:24.005Z,18.60
2023-04-15T10:35:52.590Z,18.83
2023-04-15T10:38:33.880Z,18.38
2023-04-15T10:41:17.054Z,18.83
2023-04-15T10:43:53.388Z,17.95
2023-04-15T10:46:23.779Z,18.10
2023-04-15T10:48:54.306Z,17.45
2023-04-15T10:51:30.131Z,17.92
2023-04-15T10:53:59.457Z,18.30
2023-04-15T10:56:27.288Z,18.27
2023-04-15T10:58:54.940Z,19.33
2023-04-15T11:01:24.084Z,18.15
2023-04-15T11:03:53.110Z,18.00
2023-04-15T11:06:20.898Z,17.42
2023-04-15T11:08:56.754Z,17.20
2023-04-15T11:11:24.263Z,19.13
2023-04-15T11:13:52.815Z,16.95
2023-04-15T11:16:20.630Z,18.38
2023-04-15T11:18:56.816Z,18.15
2023-04-15T11:21:26.210Z,17.80
2023-04-15T11:23:53.693Z,17.60
2023-04-15T11:26:27.159Z,16.63
2023-04-15T11:28:55.184Z,18.02
2023-04-15T11:31:24.141Z,18.08
2023-04-15T11:33:58.224Z,19.17
2023-04-15T11:36:28.225Z,17.95
2023-04-15T11:38:56.436Z,19.23
2023-04-15T11:41:24.579Z,17.15
2023-04-15T11:43:52.896Z,17.88
2023-04-15T11:46:21.471Z,18.85
2023-04-15T11:48:49.243Z,18.52
2023-04-15T11:51:18.658Z,17.98
2023-04-15T11:53:47.409Z,16.90
2023-04-15T11:56:19.657Z,18.05
2023-04-15T11:58:51.416Z,17.55
2023-04-15T12:01:22.046Z,17.60
2023-04-15T12:03:54.162Z,17.27
2023-04-15T12:06:24.530Z,17.15
2023-04-15T12:09:06.795Z,18.75
2023-04-15T12:11:37.044Z,19.13
2023-04-15T12:14:07.662Z,19.70
2023-04-15T12:16:48.261Z,20.77
2023-04-15T12:19:18.961Z,19.45
2023-04-15T12:21:49.169Z,18.52
2023-04-15T12:24:16.815Z,18.90
2023-04-15T12:26:46.040Z,17.17
2023-04-15T12:29:14.862Z,18.10
2023-04-15T12:31:52.466Z,22.38
2023-04-15T12:34:27.761Z,19.40
2023-04-15T12:36:57.829Z,22.95
2023-04-15T12:39:25.705Z,18.42
2023-04-15T12:41:53.374Z,17.45
2023-04-15T12:44:21.365Z,16.30
2023-04-15T12:46:48.972Z,16.80
2023-04-15T12:49:19.436Z,16.17
2023-04-15T12:51:47.076Z,17.80
2023-04-15T12:54:16.889Z,16.27
2023-04-15T12:56:44.435Z,14.90
2023-04-15T12:59:12.884Z,13.35
2023-04-15T13:01:40.765Z,13.68
2023-04-15T13:04:09.205Z,13.52
2023-04-15T13:06:37.133Z,14.57
2023-04-15T13:09:05.868Z,13.80
2023-04-15T13:11:35.819Z,13.55
2023-04-15T13:14:04.726Z,14.40
2023-04-15T13:16:33.059Z,14.70
2023-04-15T13:19:00.951Z,13.68
2023-04-15T13:21:28.939Z,13.98
2023-04-15T13:23:56.718Z,13.35
2023-04-15T13:26:24.267Z,15.13
2023-04-15T13:28:53.185Z,15.05
2023-04-15T13:31:21.068Z,14.45
2023-04-15T13:33:48.662Z,13.57
2023-04-15T13:36:16.400Z,13.35
2023-04-15T13:38:44.019Z,13.85
2023-04-15T13:41:11.603Z,12.07
2023-04-15T13:43:39.142Z,11.77
2023-04-15T13:46:08.190Z,12.60
2023-04-15T13:48:35.817Z,12.10
2023-04-15T13:51:03.274Z,12.40
2023-04-15T13:53:37.964Z,11.50
2023-04-15T13:56:07.081Z,11.15
2023-04-15T13:58:34.675Z,11.32
2023-04-15T14:01:04.645Z,10.18
2023-04-15T14:03:35.225Z,10.10
2023-04-15T14:06:03.058Z,10.85
2023-04-15T14:08:31.031Z,10.73
2023-04-15T14:10:58.685Z,10.82
2023-04-15T14:13:26.195Z,10.43
2023-04-15T14:15:53.763Z,10.57
2023-04-15T14:18:21.351Z,11.00
2023-04-15T14:20:50.354Z,10.60
2023-04-15T14:23:17.806Z,10.40
2023-04-15T14:25:46.830Z,10.88
2023-04-15T14:28:15.800Z,11.27
2023-04-15T14:30:43.385Z,11.02
2023-04-15T14:33:11.094Z,11.38
2023-04-15T14:35:39.087Z,10.70
2023-04-15T14:38:11.006Z,11.13
2023-04-15T14:40:38.872Z,11.32
2023-04-15T14:43:06.493Z,9.98
2023-04-15T14:45:34.245Z,10.02
2023-04-15T14:48:02.479Z,10.40
2023-04-15T14:50:30.048Z,9.48
2023-04-15T14:52:57.600Z,11.00
2023-04-15T14:55:26.429Z,13.93
2023-04-15T14:57:53.902Z,12.02
2023-04-15T15:00:21.465Z,10.07
2023-04-15T15:02:49.066Z,10.20
2023-04-15T15:05:17.058Z,10.18
2023-04-15T15:07:44.633Z,9.52
2023-04-15T15:10:12.168Z,9.18
2023-04-15T15:12:40.956Z,9.88
2023-04-15T15:15:25.209Z,11.32
2023-04-15T15:17:56.271Z,11.05
2023-04-15T15:20:24.201Z,10.77
2023-04-15T15:22:51.780Z,11.63
2023-04-15T15:25:19.328Z,12.85
2023-04-15T15:27:48.269Z,12.30
2023-04-15T15:30:15.851Z,14.40
2023-04-15T15:32:43.872Z,14.15
2023-04-15T15:35:11.762Z,13.05
2023-04-15T15:37:39.439Z,12.45
2023-04-15T15:40:08.431Z,13.00
2023-04-15T15:42:36.006Z,15.15
2023-04-15T15:45:06.092Z,15.70
2023-04-15T15:47:33.623Z,13.52
2023-04-15T15:50:02.335Z,14.32
2023-04-15T15:52:31.126Z,14.10
2023-04-15T15:54:58.700Z,15.50
2023-04-15T15:57:26.238Z,13.30
2023-04-15T16:00:04.753Z,12.07
2023-04-15T16:07:37.034Z,12.02
2023-04-15T16:10:05.073Z,13.02
2023-04-15T16:12:34.492Z,13.73
2023-04-15T16:15:03.035Z,13.30
2023-04-15T16:17:30.664Z,11.88
2023-04-15T16:20:01.257Z,12.25
2023-04-15T16:22:29.123Z,12.10
2023-04-15T16:24:56.638Z,11.05
2023-04-15T16:27:24.195Z,10.43
2023-04-15T16:29:51.687Z,11.18
2023-04-15T16:32:19.322Z,17.08
2023-04-15T16:34:46.918Z,18.42
2023-04-15T16:37:15.963Z,15.98
2023-04-15T16:39:43.429Z,11.68
2023-04-15T16:42:11.030Z,10.20
2023-04-15T16:44:38.637Z,10.27
2023-04-15T16:47:06.374Z,10.40
2023-04-15T16:49:35.014Z,10.55
2023-04-15T16:52:02.589Z,9.68
2023-04-15T16:54:33.615Z,10.02
2023-04-15T16:57:02.273Z,9.47
2023-04-15T16:59:30.392Z,11.38
2023-04-15T17:01:57.956Z,9.88
2023-04-15T17:04:26.161Z,9.73
2023-04-15T17:06:54.275Z,8.82
2023-04-15T17:09:21.860Z,10.82
2023-04-15T17:11:50.802Z,12.65
2023-04-15T17:14:18.731Z,15.02
2023-04-15T17:16:46.644Z,11.85
2023-04-15T17:19:14.088Z,10.20
2023-04-15T17:21:41.580Z,10.18
2023-04-15T17:24:09.034Z,10.23
2023-04-15T17:26:36.541Z,10.55
2023-04-15T17:29:05.763Z,9.77
2023-04-15T17:31:33.546Z,16.85
2023-04-15T17:34:09.315Z,23.10
2023-04-15T17:36:37.383Z,17.85
2023-04-15T17:39:05.152Z,12.90
2023-04-15T17:41:33.019Z,12.20
2023-04-15T17:44:00.783Z,13.90
2023-04-15T17:46:30.154Z,16.42
2023-04-15T17:48:58.448Z,19.67
2023-04-15T17:51:26.285Z,16.10
2023-04-15T17:53:54.095Z,12.93
2023-04-15T17:56:21.758Z,12.77
2023-04-15T17:58:49.593Z,12.00
2023-04-15T18:01:17.407Z,11.55
2023-04-15T18:03:46.901Z,12.95
2023-04-15T18:06:14.626Z,15.25
2023-04-15T18:08:42.102Z,13.98
2023-04-15T18:11:12.049Z,12.65
2023-04-15T18:13:40.446Z,12.68
2023-04-15T18:16:08.684Z,12.13
2023-04-15T18:18:36.179Z,11.63
2023-04-15T18:21:05.584Z,13.25
2023-04-15T18:23:33.027Z,13.00
2023-04-15T18:26:01.018Z,13.85
2023-04-15T18:28:29.222Z,13.55
2023-04-15T18:30:56.788Z,12.65
2023-04-15T18:33:24.713Z,13.23
2023-04-15T18:35:52.411Z,14.55
2023-04-15T18:38:21.331Z,14.15
2023-04-15T18:40:48.849Z,14.43
2023-04-15T18:43:16.564Z,13.13
2023-04-15T18:45:44.759Z,20.17
2023-04-15T18:48:12.600Z,15.85
2023-04-15T18:50:41.413Z,15.20
2023-04-15T18:53:08.934Z,15.38
2023-04-15T18:55:37.943Z,15.02
2023-04-15T18:58:06.580Z,14.75
2023-04-15T19:00:40.701Z,13.88
2023-04-15T19:05:36.321Z,11.98
2023-04-15T19:08:03.965Z,14.20
2023-04-15T19:10:31.520Z,14.23
2023-04-15T19:13:00.639Z,14.05
2023-04-15T19:15:28.068Z,15.38
2023-04-15T19:17:55.680Z,14.43
2023-04-15T19:20:23.330Z,14.27
2023-04-15T19:22:51.165Z,15.63
2023-04-15T19:25:18.714Z,15.70
2023-04-15T19:27:46.311Z,14.18
2023-04-15T19:30:15.240Z,16.48
2023-04-15T19:32:42.770Z,17.00
2023-04-15T19:35:11.674Z,17.08
2023-04-15T19:37:39.467Z,17.10
2023-04-15T19:40:08.734Z,18.30
2023-04-15T19:42:36.214Z,16.92
2023-04-15T19:45:03.983Z,18.73
2023-04-15T19:47:34.794Z,17.73
2023-04-15T19:50:02.451Z,18.63
2023-04-15T19:52:29.905Z,22.20
2023-04-15T19:54:57.451Z,20.08
2023-04-15T19:57:25.104Z,19.25
2023-04-15T19:59:52.620Z,20.30
2023-04-15T20:02:20.377Z,21.25
2023-04-15T20:04:49.598Z,17.35
2023-04-15T20:07:17.135Z,17.60
2023-04-15T20:09:45.486Z,15.35
2023-04-15T20:12:50.465Z,15.15
2023-04-15T20:15:00.540Z,15.18
2023-04-15T20:17:28.070Z,16.30
2023-04-15T20:19:57.185Z,14.07
2023-04-15T20:22:24.766Z,13.13
2023-04-15T20:24:52.296Z,12.73
2023-04-15T20:27:21.119Z,13.55
2023-04-15T20:29:49.089Z,14.77
2023-04-15T20:32:16.621Z,16.05
2023-04-15T20:34:44.222Z,18.20
2023-04-15T20:37:13.172Z,21.98
2023-04-15T20:39:42.055Z,22.48
2023-04-15T20:42:10.375Z,23.20
2023-04-15T20:44:38.568Z,22.77
2023-04-15T20:47:06.306Z,27.20
2023-04-15T20:49:35.451Z,23.75
2023-04-15T20:52:03.178Z,25.30
2023-04-15T20:54:32.006Z,26.48
2023-04-15T20:56:59.618Z,30.92
2023-04-15T20:59:27.281Z,29.63
2023-04-15T21:01:56.836Z,27.02
2023-04-15T21:04:24.787Z,27.17
2023-04-15T21:06:53.003Z,24.73
2023-04-15T21:09:20.777Z,28.92
2023-04-15T21:14:21.061Z,32.80
2023-04-15T21:16:48.636Z,34.50
2023-04-15T21:19:16.267Z,31.67
2023-04-15T21:21:43.787Z,32.75
2023-04-15T21:24:11.341Z,29.58
2023-04-15T21:26:38.814Z,31.13
2023-04-15T21:29:10.525Z,32.80
2023-04-15T21:31:39.110Z,32.85
2023-04-15T21:34:06.649Z,33.38
2023-04-15T21:36:34.723Z,31.45
2023-04-15T21:39:02.451Z,36.90
2023-04-15T21:41:30.038Z,37.88
2023-04-15T21:43:57.789Z,35.10
2023-04-15T21:46:33.347Z,42.42
2023-04-15T21:49:03.839Z,41.00
2023-04-15T21:51:32.646Z,37.63
2023-04-15T21:54:00.228Z,44.15
2023-04-15T21:56:27.756Z,42.70
2023-04-15T21:58:57.423Z,37.88
2023-04-15T22:01:27.184Z,44.05
2023-04-15T22:03:55.122Z,38.50
2023-04-15T22:06:22.954Z,34.25
2023-04-15T22:08:56.869Z,40.95
2023-04-15T22:11:28.136Z,40.33
2023-04-15T22:13:56.797Z,43.78
2023-04-15T22:16:25.878Z,39.03
2023-04-15T22:18:53.601Z,41.88
2023-04-15T22:21:21.339Z,46.42
2023-04-15T22:23:49.129Z,36.50
2023-04-15T22:26:16.987Z,37.42
2023-04-15T22:28:44.489Z,48.20
2023-04-15T22:31:12.092Z,44.40
2023-04-15T22:33:40.969Z,47.10
2023-04-15T22:36:08.485Z,41.15
2023-04-15T22:38:37.159Z,44.75
2023-04-15T22:41:04.734Z,46.88
2023-04-15T22:43:32.279Z,44.25
2023-04-15T22:45:59.754Z,39.58
2023-04-15T22:48:27.268Z,47.92
2023-04-15T22:50:56.199Z,40.53
2023-04-15T22:53:23.986Z,47.33
2023-04-15T22:55:51.874Z,45.20
2023-04-15T22:58:19.415Z,42.42
2023-04-15T23:00:46.888Z,42.60
2023-04-15T23:03:14.588Z,42.72
2023-04-15T23:05:42.469Z,37.78
2023-04-15T23:08:11.248Z,37.33
2023-04-15T23:10:40.002Z,43.78
2023-04-15T23:13:07.495Z,46.08
2023-04-15T23:15:34.981Z,40.92
2023-04-15T23:18:04.355Z,38.88
2023-04-15T23:20:31.907Z,37.85
2023-04-15T23:22:59.386Z,45.53
2023-04-15T23:25:28.183Z,45.45
2023-04-15T23:27:55.749Z,39.58
2023-04-15T23:30:23.199Z,39.67
2023-04-15T23:32:50.670Z,44.92
2023-04-15T23:35:18.192Z,41.83
2023-04-15T23:37:45.769Z,43.08
2023-04-15T23:40:15.623Z,38.88
2023-04-15T23:42:44.535Z,41.67
2023-04-15T23:45:13.199Z,42.78
2023-04-15T23:47:41.088Z,46.80
2023-04-15T23:50:09.362Z,43.88
2023-04-15T23:52:37.163Z,47.92
2023-04-15T23:55:05.268Z,48.13
2023-04-15T23:57:32.761Z,46.60
